LELC/MJV METAR and TAF weather

Enter ICAO airport designator
Station Type Date Time Source
LELC METAR 2020/09/20 01:00 UTC NOAA

LELC 200100Z AUTO 23004KT CAVOK 20/16 Q1017


Station Type Date Time Source
LELC Decoded METAR 2020/09/20 01:00 UTC NOAA

Murcia / San Javier, Spain (LELC) 37-47N 000-48W 3M
Sep 19, 2020 - 09:00 PM EDT / 2020.09.20 0100 UTC
Wind: from the SW (230 degrees) at 5 MPH (4 KT):0
Visibility: greater than 7 mile(s):0
Temperature: 68 F (20 C)
Dew Point: 60 F (16 C)
Relative Humidity: 77%
Pressure (altimeter): 30.03 in. Hg (1017 hPa)
ob: LELC 200100Z AUTO 23004KT CAVOK 20/16 Q1017
cycle: 1

Station Type Date Time Source
LELC TAF 2020/09/19 18:27 UTC NOAA

TAF LELC 191700Z 1918/2018 19010KT CAVOK TX30/2014Z TN20/2006Z
BECMG 1920/1922 31005KT
BECMG 2010/2012 17010KT

Example: see airport list